CXL weather

Calexico International Airport
Calexico, California, United States

Public forecast

Using degrees Fahrenheit for public forecast. Weather courtesy of forecast.io.

Closest aviation weather report (METAR) to Calexico International Airport

Closest report is Imperial County Airport, 10.4 nm (19.3 km) NNW. Retrieved 2019/10/19 05:53 UTC (23 minutes ago):

KIPL 190553Z AUTO 00000KT 10SM CLR 20/M02 A2982 RMK AO2 SLP097 T02001022 10300 20178 53010

Closest aviation forecast (TAF) to Calexico International Airport

Closest forecast is Imperial County Airport, 10.4 nm (19.3 km) NNW. Retrieved 2019/10/19 06:24 UTC (0 seconds ago):

TAF KIPL 190522Z 1906/2006 28005KT P6SM SKC FM191500 VRB03KT P6SM SKC FM200300 26005KT P6SM SKC